createdAt,value
2022-07-29T00:01:53.276Z,97525.91
2022-07-29T00:06:54.586Z,97529.28
2022-07-29T00:11:55.847Z,97524.59
2022-07-29T00:16:57.155Z,97524.44
2022-07-29T00:21:58.424Z,97520.88
2022-07-29T00:26:59.750Z,97520.22
2022-07-29T00:32:01.466Z,97516.34
2022-07-29T00:37:02.828Z,97519.31
2022-07-29T00:42:04.078Z,97512.31
2022-07-29T00:47:05.605Z,97508.38
2022-07-29T00:52:06.912Z,97510.13
2022-07-29T00:57:08.720Z,97498.84
2022-07-29T01:02:10.041Z,97493.25
2022-07-29T01:07:11.332Z,97494.94
2022-07-29T01:12:13.919Z,97499.75
2022-07-29T01:17:15.239Z,97502.31
2022-07-29T01:22:16.555Z,97498.25
2022-07-29T01:27:18.203Z,97495.19
2022-07-29T01:32:28.482Z,97494.78
2022-07-29T01:37:30.315Z,97494.56
2022-07-29T01:42:31.667Z,97492.34
2022-07-29T01:47:32.959Z,97474.50
2022-07-29T01:52:37.016Z,97465.56
2022-07-29T01:57:38.271Z,97458.22
2022-07-29T02:02:39.530Z,97470.34
2022-07-29T02:07:40.842Z,97463.47
2022-07-29T02:12:42.120Z,97462.56
2022-07-29T02:17:43.864Z,97465.09
2022-07-29T02:22:45.250Z,97455.19
2022-07-29T02:27:46.520Z,97458.19
2022-07-29T02:32:47.780Z,97465.53
2022-07-29T02:38:09.696Z,97469.81
2022-07-29T02:43:10.975Z,97466.28
2022-07-29T02:48:12.235Z,97459.69
2022-07-29T02:53:13.486Z,97460.47
2022-07-29T02:58:15.111Z,97465.06
2022-07-29T03:03:16.352Z,97473.34
2022-07-29T03:08:17.930Z,97466.72
2022-07-29T03:13:19.319Z,97478.69
2022-07-29T03:18:20.719Z,97475.91
2022-07-29T03:23:23.616Z,97470.75
2022-07-29T03:28:24.944Z,97452.09
2022-07-29T03:33:29.909Z,97451.56
2022-07-29T03:38:31.169Z,97450.91
2022-07-29T03:43:32.506Z,97456.03
2022-07-29T03:48:33.790Z,97475.06
2022-07-29T03:53:36.390Z,97470.47
2022-07-29T03:58:37.631Z,97488.66
2022-07-29T04:03:38.994Z,97492.94
2022-07-29T04:08:40.254Z,97504.25
2022-07-29T04:13:41.570Z,97507.44
2022-07-29T04:18:42.814Z,97507.16
2022-07-29T04:23:53.172Z,97508.97
2022-07-29T04:28:55.338Z,97509.78
2022-07-29T04:33:56.644Z,97509.91
2022-07-29T04:38:57.964Z,97513.25
2022-07-29T04:44:01.771Z,97520.22
2022-07-29T04:49:03.403Z,97517.19
2022-07-29T04:54:04.741Z,97512.88
2022-07-29T04:59:05.995Z,97519.84
2022-07-29T05:04:07.237Z,97505.75
2022-07-29T05:09:08.520Z,97509.38
2022-07-29T05:14:09.825Z,97506.63
2022-07-29T05:19:14.411Z,97522.69
2022-07-29T05:24:16.367Z,97528.38
2022-07-29T05:29:44.774Z,97523.41
2022-07-29T05:34:50.219Z,97521.22
2022-07-29T05:39:57.150Z,97517.56
2022-07-29T05:44:58.750Z,97529.53
2022-07-29T05:50:00.038Z,97534.31
2022-07-29T05:55:05.177Z,97529.97
2022-07-29T06:00:06.438Z,97533.13
2022-07-29T06:05:10.619Z,97526.13
2022-07-29T06:10:18.443Z,97530.75
2022-07-29T06:15:19.824Z,97536.00
2022-07-29T06:20:27.106Z,97539.38
2022-07-29T06:25:31.731Z,97538.94
2022-07-29T06:30:33.062Z,97547.47
2022-07-29T06:35:41.782Z,97536.50
2022-07-29T06:41:02.694Z,97546.22
2022-07-29T06:46:04.121Z,97546.38
2022-07-29T06:51:05.514Z,97566.75
2022-07-29T06:56:07.174Z,97561.91
2022-07-29T07:01:08.533Z,97560.81
2022-07-29T07:06:13.257Z,97555.91
2022-07-29T07:11:16.335Z,97551.06
2022-07-29T07:16:17.630Z,97550.47
2022-07-29T07:21:19.642Z,97549.44
2022-07-29T07:26:21.177Z,97546.88
2022-07-29T07:31:22.495Z,97546.53
2022-07-29T07:36:24.099Z,97523.25
2022-07-29T07:41:25.607Z,97527.31
2022-07-29T07:46:27.011Z,97520.81
2022-07-29T07:51:28.546Z,97506.63
2022-07-29T07:56:35.048Z,97510.47
2022-07-29T08:01:47.907Z,97510.94
2022-07-29T08:06:57.126Z,97507.97
2022-07-29T08:11:58.697Z,97518.22
2022-07-29T08:16:59.969Z,97510.78
2022-07-29T08:22:01.336Z,97514.94
2022-07-29T08:27:02.591Z,97514.28
2022-07-29T08:32:03.912Z,97514.00
2022-07-29T08:37:05.231Z,97505.88
2022-07-29T08:42:06.491Z,97511.56
2022-07-29T08:47:07.788Z,97515.69
2022-07-29T08:52:09.039Z,97508.72
2022-07-29T08:57:10.293Z,97509.38
2022-07-29T09:02:14.370Z,97489.59
2022-07-29T09:07:15.646Z,97506.38
2022-07-29T09:12:28.728Z,97502.44
2022-07-29T09:17:30.914Z,97486.69
2022-07-29T09:22:38.808Z,97491.66
2022-07-29T09:27:42.857Z,97469.31
2022-07-29T09:32:44.148Z,97474.72
2022-07-29T09:37:45.648Z,97472.34
2022-07-29T09:42:46.970Z,97465.50
2022-07-29T09:47:50.201Z,97468.22
2022-07-29T09:52:51.618Z,97470.09
2022-07-29T09:57:54.668Z,97458.00
2022-07-29T10:02:59.129Z,97442.16
2022-07-29T10:08:00.401Z,97438.91
2022-07-29T10:13:06.353Z,97431.84
2022-07-29T10:18:09.179Z,97427.41
2022-07-29T10:23:10.447Z,97421.66
2022-07-29T10:28:16.030Z,97432.22
2022-07-29T10:33:17.980Z,97423.06
2022-07-29T10:38:19.311Z,97414.16
2022-07-29T10:43:20.602Z,97400.78
2022-07-29T10:48:23.607Z,97396.84
2022-07-29T10:53:25.843Z,97392.00
2022-07-29T10:58:34.959Z,97401.72
2022-07-29T11:03:36.962Z,97387.41
2022-07-29T11:08:39.298Z,97395.84
2022-07-29T11:13:41.426Z,97391.69
2022-07-29T11:18:44.014Z,97376.56
2022-07-29T11:23:46.112Z,97379.66
2022-07-29T11:28:50.122Z,97368.53
2022-07-29T11:33:56.280Z,97362.06
2022-07-29T11:38:58.262Z,97382.22
2022-07-29T11:44:01.667Z,97399.13
2022-07-29T11:49:03.069Z,97389.47
2022-07-29T11:54:15.728Z,97383.78
2022-07-29T11:59:17.767Z,97369.41
2022-07-29T12:04:19.041Z,97385.09
2022-07-29T12:09:21.311Z,97385.00
2022-07-29T12:14:22.646Z,97392.94
2022-07-29T12:19:24.511Z,97391.06
2022-07-29T12:24:27.422Z,97386.75
2022-07-29T12:29:34.529Z,97404.94
2022-07-29T12:34:36.980Z,97399.03
2022-07-29T12:39:38.293Z,97387.34
2022-07-29T12:44:39.535Z,97363.88
2022-07-29T12:49:40.996Z,97374.84
2022-07-29T12:54:42.239Z,97376.78
2022-07-29T12:59:43.572Z,97370.66
2022-07-29T13:04:44.872Z,97368.63
2022-07-29T13:09:49.520Z,97356.13
2022-07-29T13:14:51.429Z,97322.47
2022-07-29T13:19:52.754Z,97332.41
2022-07-29T13:24:54.060Z,97340.56
2022-07-29T13:29:57.411Z,97332.59
2022-07-29T13:34:58.679Z,97312.59
2022-07-29T13:40:00.304Z,97299.50
2022-07-29T13:45:01.645Z,97299.06
2022-07-29T13:50:02.973Z,97326.06
2022-07-29T13:55:04.282Z,97316.09
2022-07-29T14:00:05.676Z,97311.47
2022-07-29T14:05:08.675Z,97291.84
2022-07-29T14:10:10.541Z,97315.16
2022-07-29T14:15:11.815Z,97295.56
2022-07-29T14:20:13.103Z,97290.53
2022-07-29T14:25:15.552Z,97282.88
2022-07-29T14:30:17.080Z,97281.03
2022-07-29T14:35:18.517Z,97290.16
2022-07-29T14:40:19.824Z,97304.66
2022-07-29T14:45:21.082Z,97311.91
2022-07-29T14:50:24.519Z,97313.59
2022-07-29T14:55:32.918Z,97315.19
2022-07-29T15:00:34.483Z,97318.66
2022-07-29T15:05:36.086Z,97311.72
2022-07-29T15:10:37.433Z,97331.72
2022-07-29T15:15:38.727Z,97324.03
2022-07-29T15:20:40.043Z,97330.81
2022-07-29T15:25:41.339Z,97343.06
2022-07-29T15:30:42.616Z,97351.06
2022-07-29T15:35:43.925Z,97345.06
2022-07-29T15:40:46.571Z,97362.03
2022-07-29T15:46:07.065Z,97375.75
2022-07-29T15:51:08.459Z,97389.41
2022-07-29T15:56:09.811Z,97373.13
2022-07-29T16:01:11.737Z,97370.34
2022-07-29T16:06:13.061Z,97358.75
2022-07-29T16:11:14.315Z,97372.25
2022-07-29T16:16:16.810Z,97382.28
2022-07-29T16:21:18.158Z,97385.28
2022-07-29T16:26:19.713Z,97391.25
2022-07-29T16:31:22.991Z,97397.03
2022-07-29T16:36:24.362Z,97397.13
2022-07-29T16:41:25.621Z,97398.66
2022-07-29T16:46:26.999Z,97393.94
2022-07-29T16:51:30.111Z,97388.13
2022-07-29T16:56:31.389Z,97398.44
2022-07-29T17:01:32.726Z,97392.25
2022-07-29T17:06:35.124Z,97395.06
2022-07-29T17:11:53.393Z,97401.72
2022-07-29T17:17:01.420Z,97405.69
2022-07-29T17:22:19.512Z,97411.06
2022-07-29T17:27:20.988Z,97431.81
2022-07-29T17:32:22.258Z,97446.81
2022-07-29T17:37:23.511Z,97462.84
2022-07-29T17:42:24.834Z,97481.38
2022-07-29T17:47:26.098Z,97485.59
2022-07-29T17:52:27.467Z,97486.88
2022-07-29T17:57:28.743Z,97483.59
2022-07-29T18:02:30.203Z,97486.13
2022-07-29T18:07:31.700Z,97493.28
2022-07-29T18:12:32.975Z,97502.69
2022-07-29T18:17:34.472Z,97501.28
2022-07-29T18:22:55.505Z,97507.38
2022-07-29T18:28:00.319Z,97525.13
2022-07-29T18:38:23.173Z,97558.13
2022-07-29T18:43:24.440Z,97566.50
2022-07-29T18:48:25.748Z,97596.72
2022-07-29T18:53:27.047Z,97606.31
2022-07-29T18:58:28.466Z,97616.94
2022-07-29T19:03:29.797Z,97609.47
2022-07-29T19:08:31.066Z,97619.13
2022-07-29T19:13:32.365Z,97629.25
2022-07-29T19:18:33.616Z,97632.50
2022-07-29T19:24:01.390Z,97643.19
2022-07-29T19:28:56.186Z,97655.31
2022-07-29T19:33:57.431Z,97659.63
2022-07-29T19:39:00.099Z,97660.00
2022-07-29T19:44:01.431Z,97654.16
2022-07-29T19:49:03.389Z,97658.88
2022-07-29T19:54:06.250Z,97660.31
2022-07-29T19:59:07.575Z,97652.34
2022-07-29T20:04:08.834Z,97652.50
2022-07-29T20:09:16.830Z,97660.97
2022-07-29T20:14:22.051Z,97672.09
2022-07-29T20:19:23.405Z,97679.25
2022-07-29T20:24:24.726Z,97691.91
2022-07-29T20:29:26.053Z,97695.59
2022-07-29T20:34:27.322Z,97706.88
2022-07-29T20:39:28.604Z,97708.53
2022-07-29T20:44:32.067Z,97715.19
2022-07-29T20:49:33.325Z,97719.25
2022-07-29T20:54:34.595Z,97722.72
2022-07-29T20:59:35.891Z,97723.69
2022-07-29T21:04:37.162Z,97729.28
2022-07-29T21:09:38.451Z,97728.72
2022-07-29T21:14:39.733Z,97731.31
2022-07-29T21:19:41.378Z,97733.84
2022-07-29T21:24:42.822Z,97749.84
2022-07-29T21:29:44.111Z,97758.84
2022-07-29T21:34:45.424Z,97766.00
2022-07-29T21:39:46.748Z,97771.81
2022-07-29T21:44:48.113Z,97770.59
2022-07-29T21:49:50.135Z,97764.16
2022-07-29T21:54:52.333Z,97752.06
2022-07-29T21:59:53.579Z,97753.44
2022-07-29T22:04:54.826Z,97758.47
2022-07-29T22:09:56.096Z,97753.72
2022-07-29T22:14:57.364Z,97757.94
2022-07-29T22:19:59.019Z,97751.25
2022-07-29T22:25:00.478Z,97751.78
2022-07-29T22:30:01.752Z,97749.25
2022-07-29T22:35:03.144Z,97739.47
2022-07-29T22:40:04.426Z,97740.19
2022-07-29T22:45:05.755Z,97736.16
2022-07-29T22:50:07.058Z,97722.81
2022-07-29T22:55:08.522Z,97727.34
2022-07-29T23:00:09.790Z,97724.69
2022-07-29T23:05:11.175Z,97727.25
2022-07-29T23:10:12.483Z,97726.81
2022-07-29T23:15:13.759Z,97732.59
2022-07-29T23:20:15.080Z,97724.31
2022-07-29T23:25:16.376Z,97717.94
2022-07-29T23:30:17.685Z,97720.75
2022-07-29T23:35:18.998Z,97717.28
2022-07-29T23:40:20.491Z,97712.28
2022-07-29T23:45:21.869Z,97712.75
2022-07-29T23:50:23.146Z,97708.28
2022-07-29T23:55:36.742Z,97709.53
